Decoded Metar for VTSS (SONGKHLA in THAILAND) (IATA:HDY) | Meteo·Mobile Aviation Weather
aviador You're here:

VTSS Decoded Metar

SONGKHLA in THAILAND
Report Time2019-07-24 04:00:00
UTC Time2019-07-24 04:39:15
Flight Rules vfr VFR
Wind240° at 07 kt
W.Decomp.*RWY 26: 6.6 kt HW 2.4 kt LCW
Visibility9999 m
Phenomena:N/A
Clouds:Few 020 Hf
Expected CloudBase > 2,800 ft AGL from Temp-Dew spread
CeilingNone
Temp31°C (ISA +16)
Dew Point24°C (66% RH)
Heat Index36.4°C
QNH1011 hPa
Density Alt2,431 ft
Elevation115 ft
Report Wrong Elevation
Raw Report
VTSS 240400Z 24007KT 130V260 9999 FEW020 31/24 Q1011 NOSIG=

Extra information for VTSS:More info

Metar Taf Metar & Taf Last 4 Metars F.Rules Stats Wind Profile Meteogram Temp Stats Airport Information Weather charts Add Link Nearby VenuesMetar ALERT Operation Metar Decoded Social comments